Time,TemperatureF,DewpointF,PressureIn,WindDirection,WindDirectionDegrees,WindSpeedMPH,WindSpeedGustMPH,Humidity,HourlyPrecipIn,Conditions,Clouds,dailyrainin,SolarRadiationWatts/m^2,SoftwareType,DateUTC
2014-01-01 00:08:00,24.0,12.0,30.17,West,261,8.0,18.0,61,0.00,,,0.00,0,weatherlink.com 1.10,2014-01-01 05:08:00,
2014-01-01 00:23:00,24.0,10.0,30.18,WNW,300,18.0,23.0,56,0.00,,,0.00,0,weatherlink.com 1.10,2014-01-01 05:23:00,
2014-01-01 00:38:00,23.6,9.0,30.19,WNW,284,1.0,16.0,54,0.00,,,0.00,0,weatherlink.com 1.10,2014-01-01 05:38:00,
2014-01-01 00:53:00,23.2,9.0,30.19,WNW,298,8.0,14.0,55,0.00,,,0.00,0,weatherlink.com 1.10,2014-01-01 05:53:00,
2014-01-01 01:08:00,22.9,9.0,30.19,WNW,290,8.0,13.0,55,0.00,,,0.00,0,weatherlink.com 1.10,2014-01-01 06:08:00,
2014-01-01 01:23:00,22.7,9.0,30.20,West,275,1.0,9.0,57,0.00,,,0.00,0,weatherlink.com 1.10,2014-01-01 06:23:00,
2014-01-01 01:38:00,22.6,10.0,30.20,West,259,1.0,12.0,59,0.00,,,0.00,0,weatherlink.com 1.10,2014-01-01 06:38:00,
2014-01-01 01:53:00,22.5,10.0,30.21,West,274,15.0,18.0,58,0.00,,,0.00,0,weatherlink.com 1.10,2014-01-01 06:53:00,
2014-01-01 02:08:00,22.5,10.0,30.22,West,274,7.0,18.0,58,0.00,,,0.00,0,weatherlink.com 1.10,2014-01-01 07:08:00,
2014-01-01 02:23:00,22.4,10.0,30.23,WNW,286,9.0,11.0,59,0.00,,,0.00,0,weatherlink.com 1.10,2014-01-01 07:23:00,
2014-01-01 02:38:00,22.3,9.0,30.23,West,270,8.0,16.0,57,0.00,,,0.00,0,weatherlink.com 1.10,2014-01-01 07:38:00,
2014-01-01 02:53:00,22.4,8.0,30.24,West,265,6.0,16.0,55,0.00,,,0.00,0,weatherlink.com 1.10,2014-01-01 07:53:00,
2014-01-01 03:08:00,22.4,8.0,30.23,West,266,6.0,13.0,55,0.00,,,0.00,0,weatherlink.com 1.10,2014-01-01 08:08:00,
2014-01-01 03:24:00,22.2,8.0,30.24,West,266,3.0,16.0,55,0.00,,,0.00,0,weatherlink.com 1.10,2014-01-01 08:24:00,
2014-01-01 03:39:00,22.1,8.0,30.24,West,281,6.0,13.0,55,0.00,,,0.00,0,weatherlink.com 1.10,2014-01-01 08:39:00,
2014-01-01 03:54:00,22.0,8.0,30.25,West,263,2.0,16.0,55,0.00,,,0.00,0,weatherlink.com 1.10,2014-01-01 08:54:00,
2014-01-01 04:09:00,22.0,8.0,30.25,WNW,290,11.0,19.0,54,0.00,,,0.00,0,weatherlink.com 1.10,2014-01-01 09:09:00,
2014-01-01 04:24:00,22.0,8.0,30.26,West,272,12.0,21.0,54,0.00,,,0.00,0,weatherlink.com 1.10,2014-01-01 09:24:00,
2014-01-01 04:39:00,21.8,8.0,30.27,WSW,255,9.0,17.0,55,0.00,,,0.00,0,weatherlink.com 1.10,2014-01-01 09:39:00,
2014-01-01 04:54:00,21.7,8.0,30.27,WNW,286,8.0,19.0,55,0.00,,,0.00,0,weatherlink.com 1.10,2014-01-01 09:54:00,
2014-01-01 05:09:00,21.5,8.0,30.27,West,275,14.0,16.0,56,0.00,,,0.00,0,weatherlink.com 1.10,2014-01-01 10:09:00,
2014-01-01 05:24:00,21.4,8.0,30.28,WSW,254,14.0,17.0,56,0.00,,,0.00,0,weatherlink.com 1.10,2014-01-01 10:24:00,
2014-01-01 05:39:00,21.3,8.0,30.28,West,277,11.0,16.0,58,0.00,,,0.00,0,weatherlink.com 1.10,2014-01-01 10:39:00,
2014-01-01 05:54:00,21.2,8.0,30.29,WNW,289,10.0,16.0,58,0.00,,,0.00,0,weatherlink.com 1.10,2014-01-01 10:54:00,
2014-01-01 06:09:00,21.0,9.0,30.30,NW,304,10.0,15.0,59,0.00,,,0.00,0,weatherlink.com 1.10,2014-01-01 11:09:00,
2014-01-01 06:24:00,20.9,9.0,30.29,West,268,0.0,11.0,60,0.00,,,0.00,0,weatherlink.com 1.10,2014-01-01 11:24:00,
2014-01-01 06:39:00,20.7,9.0,30.30,West,268,1.0,9.0,60,0.00,,,0.00,0,weatherlink.com 1.10,2014-01-01 11:39:00,
2014-01-01 06:54:00,20.7,9.0,30.31,WNW,285,3.0,14.0,60,0.00,,,0.00,0,weatherlink.com 1.10,2014-01-01 11:54:00,
2014-01-01 07:09:00,20.8,9.0,30.32,West,273,2.0,10.0,61,0.00,,,0.00,0,weatherlink.com 1.10,2014-01-01 12:09:00,
2014-01-01 07:24:00,20.9,9.0,30.32,West,271,4.0,11.0,60,0.00,,,0.00,5,weatherlink.com 1.10,2014-01-01 12:24:00,
2014-01-01 07:39:00,21.2,10.0,30.32,WSW,240,8.0,12.0,61,0.00,,,0.00,12,weatherlink.com 1.10,2014-01-01 12:39:00,
2014-01-01 07:54:00,21.2,10.0,30.33,WSW,248,3.0,11.0,61,0.00,,,0.00,18,weatherlink.com 1.10,2014-01-01 12:54:00,
2014-01-01 08:24:00,21.3,10.0,30.35,WSW,252,1.0,12.0,62,0.00,,,0.00,35,weatherlink.com 1.10,2014-01-01 13:24:00,
2014-01-01 08:39:00,21.9,10.0,30.35,WSW,254,10.0,12.0,61,0.00,,,0.00,42,weatherlink.com 1.10,2014-01-01 13:39:00,
2014-01-01 08:54:00,22.5,10.0,30.36,West,261,8.0,14.0,58,0.00,,,0.00,47,weatherlink.com 1.10,2014-01-01 13:54:00,
2014-01-01 09:09:00,23.0,10.0,30.36,West,267,4.0,12.0,58,0.00,,,0.00,62,weatherlink.com 1.10,2014-01-01 14:09:00,
2014-01-01 09:24:00,24.0,10.0,30.36,West,261,11.0,19.0,56,0.00,,,0.00,283,weatherlink.com 1.10,2014-01-01 14:24:00,
2014-01-01 09:39:00,25.3,11.0,30.36,NW,312,3.0,19.0,54,0.00,,,0.00,311,weatherlink.com 1.10,2014-01-01 14:39:00,
2014-01-01 09:54:00,26.0,11.0,30.37,West,268,5.0,16.0,53,0.00,,,0.00,339,weatherlink.com 1.10,2014-01-01 14:54:00,
2014-01-01 10:09:00,26.4,10.0,30.36,NW,309,9.0,20.0,50,0.00,,,0.00,359,weatherlink.com 1.10,2014-01-01 15:09:00,
2014-01-01 10:25:00,26.5,10.0,30.36,West,281,9.0,16.0,50,0.00,,,0.00,374,weatherlink.com 1.10,2014-01-01 15:25:00,
2014-01-01 10:40:00,27.0,11.0,30.34,WNW,294,10.0,14.0,50,0.00,,,0.00,387,weatherlink.com 1.10,2014-01-01 15:40:00,
2014-01-01 10:55:00,26.6,10.0,30.34,West,281,8.0,16.0,50,0.00,,,0.00,46,weatherlink.com 1.10,2014-01-01 15:55:00,
2014-01-01 11:10:00,26.3,10.0,30.33,West,278,12.0,15.0,50,0.00,,,0.00,67,weatherlink.com 1.10,2014-01-01 16:10:00,
2014-01-01 11:25:00,26.3,10.0,30.32,West,280,11.0,15.0,51,0.00,,,0.00,81,weatherlink.com 1.10,2014-01-01 16:25:00,
2014-01-01 11:40:00,26.7,10.0,30.32,West,281,10.0,18.0,50,0.00,,,0.00,111,weatherlink.com 1.10,2014-01-01 16:40:00,
2014-01-01 11:55:00,27.0,11.0,30.32,WNW,297,13.0,13.0,51,0.00,,,0.00,107,weatherlink.com 1.10,2014-01-01 16:55:00,
2014-01-01 12:10:00,27.5,11.0,30.32,West,261,12.0,13.0,50,0.00,,,0.00,93,weatherlink.com 1.10,2014-01-01 17:10:00,
2014-01-01 12:25:00,27.7,10.0,30.32,NW,306,7.0,15.0,48,0.00,,,0.00,113,weatherlink.com 1.10,2014-01-01 17:25:00,
2014-01-01 12:40:00,27.8,10.0,30.32,West,265,10.0,16.0,48,0.00,,,0.00,62,weatherlink.com 1.10,2014-01-01 17:40:00,
2014-01-01 12:55:00,27.6,10.0,30.32,NW,319,2.0,16.0,48,0.00,,,0.00,46,weatherlink.com 1.10,2014-01-01 17:55:00,
2014-01-01 13:10:00,27.4,10.0,30.32,WNW,287,2.0,14.0,49,0.00,,,0.00,49,weatherlink.com 1.10,2014-01-01 18:10:00,
2014-01-01 13:25:00,27.3,10.0,30.32,West,281,2.0,14.0,49,0.00,,,0.00,37,weatherlink.com 1.10,2014-01-01 18:25:00,
2014-01-01 13:40:00,27.2,10.0,30.31,West,281,7.0,15.0,49,0.00,,,0.00,30,weatherlink.com 1.10,2014-01-01 18:40:00,
2014-01-01 13:55:00,27.3,11.0,30.31,West,264,10.0,13.0,50,0.00,,,0.00,32,weatherlink.com 1.10,2014-01-01 18:55:00,
2014-01-01 14:10:00,27.4,10.0,30.32,West,281,8.0,15.0,49,0.00,,,0.00,39,weatherlink.com 1.10,2014-01-01 19:10:00,
2014-01-01 14:25:00,27.6,11.0,30.32,WNW,291,2.0,15.0,49,0.00,,,0.00,49,weatherlink.com 1.10,2014-01-01 19:25:00,
2014-01-01 14:40:00,27.9,10.0,30.32,WNW,287,2.0,10.0,48,0.00,,,0.00,37,weatherlink.com 1.10,2014-01-01 19:40:00,
2014-01-01 14:55:00,27.6,11.0,30.32,West,275,2.0,9.0,49,0.00,,,0.00,40,weatherlink.com 1.10,2014-01-01 19:55:00,
2014-01-01 15:10:00,27.6,11.0,30.33,West,277,6.0,10.0,49,0.00,,,0.00,32,weatherlink.com 1.10,2014-01-01 20:10:00,
2014-01-01 15:25:00,27.4,10.0,30.32,West,273,6.0,12.0,49,0.00,,,0.00,21,weatherlink.com 1.10,2014-01-01 20:25:00,
2014-01-01 15:40:00,27.3,11.0,30.32,WNW,288,1.0,14.0,50,0.00,,,0.00,19,weatherlink.com 1.10,2014-01-01 20:40:00,
2014-01-01 15:55:00,27.2,11.0,30.33,WNW,288,0.0,8.0,50,0.00,,,0.00,12,weatherlink.com 1.10,2014-01-01 20:55:00,
2014-01-01 16:10:00,26.9,11.0,30.32,WNW,299,4.0,8.0,51,0.00,,,0.00,9,weatherlink.com 1.10,2014-01-01 21:10:00,
2014-01-01 16:25:00,26.7,11.0,30.33,NW,313,0.0,7.0,51,0.00,,,0.00,0,weatherlink.com 1.10,2014-01-01 21:25:00,
2014-01-01 16:40:00,26.2,11.0,30.33,NNW,329,2.0,8.0,52,0.00,,,0.00,0,weatherlink.com 1.10,2014-01-01 21:40:00,
2014-01-01 16:55:00,25.8,11.0,30.34,NNW,329,0.0,3.0,53,0.00,,,0.00,0,weatherlink.com 1.10,2014-01-01 21:55:00,
2014-01-01 17:10:00,25.5,10.0,30.34,NNW,329,0.0,2.0,53,0.00,,,0.00,0,weatherlink.com 1.10,2014-01-01 22:10:00,
2014-01-01 17:25:00,25.4,10.0,30.35,NNW,329,0.0,2.0,53,0.00,,,0.00,0,weatherlink.com 1.10,2014-01-01 22:25:00,
2014-01-01 17:40:00,25.3,10.0,30.35,NNW,329,0.0,2.0,53,0.00,,,0.00,0,weatherlink.com 1.10,2014-01-01 22:40:00,
2014-01-01 17:55:00,24.9,11.0,30.36,NNW,327,0.0,1.0,55,0.00,,,0.00,0,weatherlink.com 1.10,2014-01-01 22:55:00,
2014-01-01 18:10:00,24.6,10.0,30.35,NNW,327,0.0,1.0,55,0.00,,,0.00,0,weatherlink.com 1.10,2014-01-01 23:10:00,
2014-01-01 18:25:00,24.7,11.0,30.36,NNW,327,0.0,2.0,55,0.00,,,0.00,0,weatherlink.com 1.10,2014-01-01 23:25:00,
2014-01-01 18:40:00,24.7,11.0,30.36,NNW,327,0.0,1.0,55,0.00,,,0.00,0,weatherlink.com 1.10,2014-01-01 23:40:00,
2014-01-01 18:55:00,24.7,11.0,30.36,NNW,327,0.0,2.0,56,0.00,,,0.00,0,weatherlink.com 1.10,2014-01-01 23:55:00,
2014-01-01 19:10:00,24.8,10.0,30.35,NNW,332,1.0,7.0,54,0.00,,,0.00,0,weatherlink.com 1.10,2014-01-02 00:10:00,
2014-01-01 19:25:00,24.6,10.0,30.36,NNW,332,0.0,2.0,55,0.00,,,0.00,0,weatherlink.com 1.10,2014-01-02 00:25:00,
2014-01-01 19:40:00,24.3,10.0,30.36,NNW,332,0.0,1.0,55,0.00,,,0.00,0,weatherlink.com 1.10,2014-01-02 00:40:00,
2014-01-01 19:55:00,24.1,10.0,30.37,NNW,332,0.0,2.0,56,0.00,,,0.00,0,weatherlink.com 1.10,2014-01-02 00:55:00,
2014-01-01 20:10:00,24.0,10.0,30.36,North,355,2.0,9.0,56,0.00,,,0.00,0,weatherlink.com 1.10,2014-01-02 01:10:00,
2014-01-01 20:25:00,24.0,10.0,30.36,North,355,0.0,3.0,56,0.00,,,0.00,0,weatherlink.com 1.10,2014-01-02 01:25:00,
2014-01-01 20:40:00,23.8,10.0,30.36,North,355,1.0,4.0,57,0.00,,,0.00,0,weatherlink.com 1.10,2014-01-02 01:40:00,
2014-01-01 20:55:00,23.7,11.0,30.36,North,355,0.0,3.0,58,0.00,,,0.00,0,weatherlink.com 1.10,2014-01-02 01:55:00,
2014-01-01 21:10:00,23.8,11.0,30.37,North,355,0.0,2.0,58,0.00,,,0.00,0,weatherlink.com 1.10,2014-01-02 02:10:00,
2014-01-01 21:25:00,23.8,11.0,30.37,North,355,0.0,0.0,59,0.00,,,0.00,0,weatherlink.com 1.10,2014-01-02 02:25:00,
2014-01-01 21:40:00,23.6,11.0,30.37,North,355,0.0,0.0,58,0.00,,,0.00,0,weatherlink.com 1.10,2014-01-02 02:40:00,
2014-01-01 21:55:00,23.7,11.0,30.37,North,355,0.0,0.0,58,0.00,,,0.00,0,weatherlink.com 1.10,2014-01-02 02:55:00,
2014-01-01 22:10:00,23.7,11.0,30.38,North,355,0.0,1.0,58,0.00,,,0.00,0,weatherlink.com 1.10,2014-01-02 03:10:00,
2014-01-01 22:25:00,23.8,11.0,30.38,North,355,0.0,2.0,58,0.00,,,0.00,0,weatherlink.com 1.10,2014-01-02 03:25:00,
2014-01-01 22:40:00,23.8,11.0,30.38,North,355,0.0,0.0,58,0.00,,,0.00,0,weatherlink.com 1.10,2014-01-02 03:40:00,
2014-01-01 22:55:00,23.8,11.0,30.38,North,355,0.0,1.0,59,0.00,,,0.00,0,weatherlink.com 1.10,2014-01-02 03:55:00,
2014-01-01 23:10:00,23.9,11.0,30.38,North,355,0.0,3.0,59,0.00,,,0.00,0,weatherlink.com 1.10,2014-01-02 04:10:00,
2014-01-01 23:25:00,23.9,11.0,30.36,North,355,1.0,4.0,59,0.00,,,0.00,0,weatherlink.com 1.10,2014-01-02 04:25:00,
2014-01-01 23:40:00,23.9,11.0,30.36,North,355,6.0,6.0,59,0.00,,,0.00,0,weatherlink.com 1.10,2014-01-02 04:40:00,
2014-01-01 23:55:00,23.9,11.0,30.36,North,355,0.0,5.0,59,0.00,,,0.00,0,weatherlink.com 1.10,2014-01-02 04:55:00,